MST,Max TemperatureF,Mean TemperatureF,Min TemperatureF,Max Dew PointF,MeanDew PointF,Min DewpointF,Max Humidity, Mean Humidity, Min Humidity, Max Sea Level PressureIn, Mean Sea Level PressureIn, Min Sea Level PressureIn, Max VisibilityMiles, Mean VisibilityMiles, Min VisibilityMiles, Max Wind SpeedMPH, Mean Wind SpeedMPH, Max Gust SpeedMPH,PrecipitationIn, CloudCover, Events, WindDirDegrees
2013-11-1,55,46,37,37,34,30,81,62,38,30.33,30.26,30.20,15,12,10,13,5,,0.00,5,,215
2013-11-2,66,48,30,34,30,25,87,59,21,30.27,30.05,29.80,15,12,10,14,4,,0.00,0,,128
2013-11-3,48,37,26,34,26,18,81,60,39,30.34,29.89,29.77,15,11,8,25,8,30,0.00,2,Rain,334
2013-11-4,37,32,24,27,23,19,93,73,56,30.12,30.04,30.00,15,11,8,7,3,,0.00,3,Snow,113
2013-11-5,39,32,24,27,21,18,86,72,42,30.36,30.25,30.12,15,12,9,8,4,,0.00,3,,129
2013-11-6,48,38,28,28,22,18,81,61,34,30.46,30.41,30.36,15,12,10,10,6,,0.00,4,,138
2013-11-7,53,40,28,34,27,23,93,63,38,30.44,30.29,30.07,15,12,10,14,3,,0.00,2,,144
2013-11-8,62,50,37,34,27,23,75,51,23,30.10,30.07,30.04,15,12,10,12,4,,0.00,1,,83
2013-11-9,57,44,30,34,28,21,81,66,29,30.23,30.16,30.09,15,12,6,10,3,,0.00,1,,136
2013-11-10,57,44,30,34,28,25,87,70,31,30.32,30.27,30.22,15,11,7,7,2,,0.00,0,,133
2013-11-11,59,44,30,32,27,23,80,64,29,30.43,30.34,30.28,15,12,10,6,2,,0.00,0,,150
2013-11-12,57,44,30,34,28,23,87,70,33,30.51,30.43,30.28,15,12,10,6,3,,0.00,1,,114
2013-11-13,55,44,32,37,31,27,93,68,38,30.37,30.29,30.20,15,11,7,15,3,17,0.00,2,,319
2013-11-14,55,42,28,34,28,23,93,70,36,30.25,30.08,29.77,15,10,5,7,3,,0.00,1,,127
2013-11-15,42,38,32,36,31,27,100,78,57,29.79,29.74,29.71,15,11,5,22,6,24,0.00,6,Rain,344
2013-11-16,37,32,28,36,31,27,100,91,75,29.80,29.68,29.60,15,8,0,10,4,,0.00,5,Rain-Snow,88
2013-11-17,51,42,32,36,32,27,93,79,44,30.16,30.01,29.81,15,12,10,21,8,,0.00,4,,333
2013-11-18,57,42,26,36,29,25,93,69,38,30.21,30.12,29.99,15,12,10,18,5,23,0.00,1,,142
2013-11-19,51,45,39,43,34,28,93,70,50,30.00,29.96,29.93,15,12,10,12,6,,0.00,4,,125
2013-11-20,48,42,35,41,38,30,93,88,66,29.94,29.90,29.86,15,11,6,8,2,,0.00,7,Rain,138
2013-11-21,42,38,33,41,32,21,93,80,56,30.27,30.04,29.88,15,10,5,21,8,26,0.00,7,Rain-Snow,305
2013-11-22,37,34,30,27,17,9,80,50,33,30.33,30.27,30.23,15,11,10,22,10,30,0.00,2,,320
2013-11-23,48,39,30,27,14,7,57,39,30,30.26,30.20,30.12,15,12,10,20,12,28,0.00,3,,327
2013-11-24,39,32,26,34,28,23,100,75,56,30.25,30.18,30.13,15,11,1,7,2,,0.00,4,,34
2013-11-25,39,32,24,30,27,21,100,88,65,30.45,30.35,30.25,15,9,5,5,1,,0.00,3,,104
2013-11-26,42,32,23,30,24,19,100,83,53,30.48,30.41,30.32,15,8,5,7,3,,0.00,0,,110
2013-11-27,46,34,23,32,25,19,100,83,49,30.32,30.22,30.11,15,10,7,6,1,,0.00,2,,208
2013-11-28,48,36,24,34,27,21,100,80,43,30.19,30.14,30.09,15,10,0,8,1,,0.00,2,,340
2013-11-29,48,37,26,32,27,23,100,79,46,30.31,30.25,30.19,15,11,5,13,2,,0.00,0,,109
2013-11-30,44,34,24,30,25,19,93,78,53,30.36,30.31,30.25,15,12,10,9,3,,0.00,1,,132